Time;durP1;ratioP1;P1;durP2;ratioP2;P2;SDS_P1;SDS_P2;PMS_P1;PMS_P2;Temp;Humidity;BMP_temperature;BMP_pressure;BME280_temperature;BME280_humidity;BME280_pressure;Samples;Min_cycle;Max_cycle;Signal;HPM_P1;HPM_P2
2023/06/13 00:02:51;;;;;;;9.83;5.43;;;;;;;19.22;80.36;96608.41;5028020;28;20208;-71
2023/06/13 00:06:13;;;;;;;5.53;4.90;;;;;;;19.18;80.57;96599.16;5028257;28;20201;-76
2023/06/13 00:09:33;;;;;;;7.23;5.73;;;;;;;19.30;79.64;96601.53;5027792;28;20587;-72
2023/06/13 00:12:54;;;;;;;9.73;5.60;;;;;;;19.38;79.88;96606.97;5027407;28;20598;-73
2023/06/13 00:16:15;;;;;;;6.57;5.30;;;;;;;19.42;79.32;96600.50;5027734;28;20206;-70
2023/06/13 00:19:36;;;;;;;5.77;4.87;;;;;;;19.05;81.30;96596.75;5025310;28;20599;-66
2023/06/13 00:22:57;;;;;;;7.13;5.23;;;;;;;18.63;84.13;96590.75;5028033;28;20202;-71
2023/06/13 00:26:17;;;;;;;11.77;5.60;;;;;;;18.54;83.59;96586.31;5027237;28;20205;-69
2023/06/13 00:29:38;;;;;;;6.77;5.50;;;;;;;18.51;84.08;96580.47;5027076;28;20209;-70
2023/06/13 00:32:59;;;;;;;6.67;5.20;;;;;;;18.72;83.07;96583.06;5027476;28;20205;-71
2023/06/13 00:36:20;;;;;;;6.10;5.50;;;;;;;18.28;83.68;96584.19;5025627;28;20204;-72
2023/06/13 00:39:40;;;;;;;8.60;5.10;;;;;;;18.22;85.13;96582.03;5027172;28;20210;-71
2023/06/13 00:43:01;;;;;;;9.90;5.60;;;;;;;18.46;84.21;96577.41;5026878;28;20216;-67
2023/06/13 00:46:22;;;;;;;7.20;5.87;;;;;;;18.57;83.16;96574.69;5026985;28;20216;-67
2023/06/13 00:49:42;;;;;;;8.83;5.90;;;;;;;18.85;82.53;96581.91;5027362;28;20237;-69
2023/06/13 00:53:03;;;;;;;7.27;5.43;;;;;;;18.71;82.91;96584.88;5027017;28;20209;-69
2023/06/13 00:56:24;;;;;;;8.30;5.93;;;;;;;18.44;84.66;96571.47;5026560;28;20209;-67
2023/06/13 00:59:44;;;;;;;11.07;5.70;;;;;;;18.73;83.46;96575.09;5026824;28;20323;-68
2023/06/13 01:03:09;;;;;;;7.50;5.30;;;;;;;18.87;82.62;96571.25;5027086;28;20201;-68
2023/06/13 01:06:30;;;;;;;9.20;5.87;;;;;;;18.99;82.16;96565.78;5025091;28;20209;-65
2023/06/13 01:09:51;;;;;;;9.73;5.87;;;;;;;18.88;82.17;96579.00;5026562;28;20732;-68
2023/06/13 01:13:11;;;;;;;11.90;5.33;;;;;;;18.56;83.70;96563.41;5008155;28;20208;-66
2023/06/13 01:16:35;;;;;;;11.03;6.40;;;;;;;18.55;84.29;96560.88;5008380;28;20759;-66
2023/06/13 01:20:18;;;;;;;9.47;6.87;;;;;;;18.36;83.98;96560.78;5009120;28;20215;-69
2023/06/13 01:23:06;;;;;;;8.83;5.37;;;;;;;18.48;83.37;96555.34;5026130;28;20223;-70
2023/06/13 01:26:21;;;;;;;7.80;5.73;;;;;;;18.48;83.76;96554.53;5007857;28;20216;-66
2023/06/13 01:29:42;;;;;;;8.10;5.73;;;;;;;18.48;83.49;96551.91;5025544;28;20630;-66
2023/06/13 01:33:03;;;;;;;9.73;6.17;;;;;;;18.36;85.36;96556.34;5026079;28;20201;-67
2023/06/13 01:36:23;;;;;;;12.50;7.63;;;;;;;18.48;85.30;96557.16;5025799;28;20201;-66
2023/06/13 01:39:44;;;;;;;8.63;6.70;;;;;;;18.72;85.02;96549.78;5008050;28;20729;-66
2023/06/13 01:43:05;;;;;;;12.80;8.00;;;;;;;18.87;85.19;96548.47;5007784;28;20261;-67
2023/06/13 01:46:26;;;;;;;10.33;8.33;;;;;;;18.82;85.48;96558.53;5025723;28;20205;-68
2023/06/13 01:49:36;;;;;;;12.57;7.90;;;;;;;18.76;86.02;96555.59;5025775;28;20228;-67
2023/06/13 01:52:32;;;;;;;11.23;8.57;;;;;;;18.67;86.70;96549.34;5005098;28;20212;-68
2023/06/13 01:55:56;;;;;;;15.43;9.40;;;;;;;18.67;87.40;96549.34;5007937;28;20201;-66
2023/06/13 01:59:12;;;;;;;13.53;10.37;;;;;;;18.90;86.40;96539.53;5008113;28;20559;-67
2023/06/13 02:02:33;;;;;;;13.97;9.23;;;;;;;18.73;86.85;96538.34;5008087;28;20202;-70
2023/06/13 02:05:54;;;;;;;17.70;9.60;;;;;;;18.57;87.73;96548.47;5007920;28;20219;-67
2023/06/13 02:09:15;;;;;;;15.67;9.10;;;;;;;18.63;87.24;96551.41;5025123;28;20300;-67
2023/06/13 02:12:19;;;;;;;12.50;9.33;;;;;;;18.49;88.29;96553.53;5025309;28;20224;-70
2023/06/13 02:14:48;;;;;;;17.20;10.47;;;;;;;18.41;88.75;96545.47;4991230;28;20218;-73
2023/06/13 02:17:15;;;;;;;13.03;10.43;;;;;;;18.32;88.96;96547.06;5026186;28;20201;-65
2023/06/13 02:19:42;;;;;;;18.57;9.37;;;;;;;18.26;89.20;96544.97;5027124;28;20212;-70
2023/06/13 02:22:09;;;;;;;13.00;9.67;;;;;;;18.30;88.92;96545.56;5008290;28;20296;-67
2023/06/13 02:24:36;;;;;;;11.77;8.83;;;;;;;18.11;89.47;96551.50;4992608;28;20271;-69
2023/06/13 02:27:03;;;;;;;16.90;9.30;;;;;;;18.03;89.97;96550.47;5026220;28;20237;-67
2023/06/13 02:29:31;;;;;;;12.87;9.27;;;;;;;17.99;90.31;96546.47;5026165;28;20677;-68
2023/06/13 02:31:58;;;;;;;13.30;8.80;;;;;;;17.80;91.84;96553.19;5026414;28;20198;-71
2023/06/13 02:34:25;;;;;;;16.13;9.83;;;;;;;17.98;91.49;96560.50;5025979;28;20203;-71
2023/06/13 02:36:52;;;;;;;13.63;9.43;;;;;;;17.87;91.51;96559.59;5026515;28;20296;-68
2023/06/13 02:39:19;;;;;;;13.00;9.63;;;;;;;17.98;91.33;96556.09;5025621;28;20632;-69
2023/06/13 02:41:46;;;;;;;13.80;8.83;;;;;;;18.02;90.62;96554.03;5028382;28;20205;-68
2023/06/13 02:44:13;;;;;;;11.90;7.90;;;;;;;18.16;89.95;96561.59;5029436;28;20204;-68
2023/06/13 02:46:40;;;;;;;13.50;8.40;;;;;;;17.98;89.99;96553.47;5011915;28;20288;-68
2023/06/13 02:49:08;;;;;;;13.23;8.57;;;;;;;18.15;89.74;96567.81;5011819;28;20239;-67
2023/06/13 02:51:35;;;;;;;11.07;8.87;;;;;;;17.89;90.71;96549.00;5029282;28;20218;-68
2023/06/13 02:54:02;;;;;;;11.40;8.07;;;;;;;17.85;91.13;96569.38;5011880;28;20301;-67
2023/06/13 02:56:29;;;;;;;13.00;8.03;;;;;;;17.98;89.86;96568.38;5011935;28;20204;-67
2023/06/13 02:58:56;;;;;;;12.03;7.87;;;;;;;18.20;89.71;96579.56;5029953;28;20708;-67
2023/06/13 03:01:26;;;;;;;14.73;8.90;;;;;;;18.16;89.54;96574.69;5011337;28;20200;-69
2023/06/13 03:03:56;;;;;;;12.37;8.37;;;;;;;18.16;88.78;96574.69;5011783;28;20274;-68
2023/06/13 03:06:24;;;;;;;12.23;7.70;;;;;;;18.19;88.85;96582.31;5029179;28;20203;-67
2023/06/13 03:08:52;;;;;;;12.53;7.90;;;;;;;18.29;87.90;96584.03;5011699;28;20210;-67
2023/06/13 03:11:20;;;;;;;11.47;7.83;;;;;;;18.50;86.60;96576.19;5011713;28;20233;-68
2023/06/13 03:13:47;;;;;;;8.70;7.00;;;;;;;18.36;86.68;96579.94;5011222;28;20716;-67
2023/06/13 03:16:14;;;;;;;9.73;7.50;;;;;;;18.41;85.85;96580.38;5006205;28;20206;-70
2023/06/13 03:18:41;;;;;;;9.20;7.60;;;;;;;18.07;87.25;96584.19;4991677;28;20210;-71
2023/06/13 03:21:09;;;;;;;10.13;7.00;;;;;;;17.91;87.31;96538.41;4992013;28;20207;-73
2023/06/13 03:23:36;;;;;;;12.40;7.77;;;;;;;18.28;86.63;96589.44;5009159;28;20210;-66
2023/06/13 03:26:03;;;;;;;10.13;6.90;;;;;;;18.26;86.54;96589.53;5009372;28;20207;-69
2023/06/13 03:28:31;;;;;;;14.80;7.37;;;;;;;18.39;85.56;96584.94;4991700;28;20268;-73
2023/06/13 03:31:00;;;;;;;10.80;6.83;;;;;;;18.58;84.65;96577.22;5004945;28;20785;-69
2023/06/13 03:33:30;;;;;;;7.40;6.10;;;;;;;18.34;84.65;96586.28;5008062;28;20213;-74
2023/06/13 03:35:57;;;;;;;8.60;6.30;;;;;;;18.27;84.98;96591.22;5008562;28;20214;-69
2023/06/13 03:38:27;;;;;;;11.97;7.70;;;;;;;18.25;85.05;96587.03;5001623;28;20204;-67
2023/06/13 03:40:55;;;;;;;10.13;6.73;;;;;;;18.28;85.01;96578.94;4991899;28;20221;-66
2023/06/13 03:43:22;;;;;;;9.40;6.20;;;;;;;18.16;85.66;96579.94;5019025;28;20214;-66
2023/06/13 03:45:53;;;;;;;10.87;6.97;;;;;;;18.07;85.45;96576.31;5017556;28;20309;-68
2023/06/13 03:48:22;;;;;;;8.30;6.13;;;;;;;18.16;85.14;96579.94;5004693;28;20224;-66
2023/06/13 03:50:49;;;;;;;12.17;6.30;;;;;;;18.15;85.73;96583.53;5028887;28;20247;-65
2023/06/13 03:53:16;;;;;;;10.17;6.97;;;;;;;18.22;85.99;96584.66;5010425;28;20246;-65
2023/06/13 03:55:45;;;;;;;8.63;6.20;;;;;;;17.53;85.33;96461.22;5028515;28;20229;-67
2023/06/13 03:58:12;;;;;;;10.57;6.63;;;;;;;18.16;85.82;96585.19;5010609;28;20205;-67
2023/06/13 04:00:40;;;;;;;10.80;6.90;;;;;;;18.28;85.60;96589.44;5028491;28;20635;-68
2023/06/13 04:03:08;;;;;;;10.33;7.80;;;;;;;18.02;87.58;96588.13;5010481;28;20261;-66
2023/06/13 04:05:35;;;;;;;9.93;6.87;;;;;;;17.95;88.02;96589.59;5008026;28;20601;-68
2023/06/13 04:08:06;;;;;;;13.27;7.60;;;;;;;18.29;86.89;96591.91;5001479;28;20217;-65
2023/06/13 04:10:36;;;;;;;11.50;6.90;;;;;;;18.46;86.40;96593.16;5017697;28;20264;-70
2023/06/13 04:13:06;;;;;;;13.63;7.53;;;;;;;18.56;85.56;96600.13;5016815;28;20281;-66
2023/06/13 04:15:36;;;;;;;13.07;7.40;;;;;;;18.70;84.80;96593.69;4998688;28;20201;-66
2023/06/13 04:18:03;;;;;;;12.67;7.03;;;;;;;18.57;83.55;96537.97;4982665;28;20214;-68
2023/06/13 04:20:34;;;;;;;18.93;8.43;;;;;;;18.97;83.47;96596.59;4990686;28;20574;-68
2023/06/13 04:23:01;;;;;;;19.87;8.90;;;;;;;19.01;83.55;96605.84;4989952;28;20207;-68
2023/06/13 04:25:28;;;;;;;20.07;7.37;;;;;;;18.95;83.04;96602.91;5008590;28;20232;-67
2023/06/13 04:27:57;;;;;;;17.83;7.10;;;;;;;18.94;82.90;96615.19;5007644;28;20214;-66
2023/06/13 04:30:25;;;;;;;12.23;7.63;;;;;;;18.88;84.25;96605.22;5007609;28;20729;-67
2023/06/13 04:32:52;;;;;;;17.10;8.87;;;;;;;18.78;84.75;96606.97;4990144;28;20220;-66
2023/06/13 04:35:21;;;;;;;13.47;7.33;;;;;;;18.93;84.31;96612.72;5007773;28;20601;-67
2023/06/13 04:37:49;;;;;;;12.97;8.57;;;;;;;19.08;83.83;96619.28;5007825;28;20221;-69
2023/06/13 04:40:16;;;;;;;13.50;9.93;;;;;;;19.00;84.45;96598.94;5007784;28;20217;-72
2023/06/13 04:42:51;;;;;;;24.90;8.83;;;;;;;19.01;84.27;96624.22;5007974;28;20221;-73
2023/06/13 04:45:22;;;;;;;23.23;9.47;;;;;;;18.88;84.97;96625.38;5007284;28;20203;-70
2023/06/13 04:47:51;;;;;;;16.03;8.47;;;;;;;18.96;85.14;96628.22;5007470;28;20245;-67
2023/06/13 04:50:28;;;;;;;15.23;8.30;;;;;;;18.79;85.30;96618.31;5007296;28;20237;-69
2023/06/13 04:52:55;;;;;;;13.50;8.03;;;;;;;18.68;85.63;96630.56;5007303;28;20664;-73
2023/06/13 04:55:25;;;;;;;17.20;9.77;;;;;;;18.56;86.11;96621.09;5007599;28;20214;-78
2023/06/13 04:57:52;;;;;;;21.87;10.23;;;;;;;18.69;86.12;96636.66;5006960;28;20293;-75
2023/06/13 05:00:20;;;;;;;21.00;9.40;;;;;;;18.72;85.54;96631.13;5007189;28;20721;-74
2023/06/13 05:02:48;;;;;;;17.73;8.93;;;;;;;18.58;85.96;96623.59;5006766;28;20206;-66
2023/06/13 05:05:18;;;;;;;15.50;9.10;;;;;;;18.84;85.43;96630.06;5006795;28;20217;-71
2023/06/13 05:07:47;;;;;;;14.13;9.00;;;;;;;18.98;85.23;96634.16;5007385;28;20199;-69
2023/06/13 05:10:15;;;;;;;11.97;8.63;;;;;;;18.90;85.48;96629.56;5006712;28;20238;-67
2023/06/13 05:12:45;;;;;;;13.17;10.57;;;;;;;18.67;87.04;96633.28;5006921;28;20215;-72
2023/06/13 05:15:12;;;;;;;15.43;9.30;;;;;;;18.55;87.28;96635.16;5006573;28;20202;-75
2023/06/13 05:17:40;;;;;;;17.13;8.67;;;;;;;18.55;87.40;96645.66;5008586;28;20210;-74
2023/06/13 05:20:07;;;;;;;14.00;8.67;;;;;;;18.80;86.03;96633.91;5006827;28;20212;-72
2023/06/13 05:22:34;;;;;;;17.63;8.87;;;;;;;18.63;86.37;96645.84;4989007;28;20205;-67
2023/06/13 05:25:01;;;;;;;9.93;8.53;;;;;;;18.63;86.05;96648.47;5006946;28;20695;-74
2023/06/13 05:27:29;;;;;;;11.43;9.40;;;;;;;18.46;86.60;96646.44;5006602;28;20203;-72
2023/06/13 05:29:56;;;;;;;11.50;8.80;;;;;;;18.13;88.72;96645.72;5006895;28;20692;-66
2023/06/13 05:32:23;;;;;;;17.13;10.33;;;;;;;18.51;86.87;96649.50;5006287;28;20215;-66
2023/06/13 05:34:50;;;;;;;20.07;11.37;;;;;;;18.48;87.63;96655.00;5006972;28;20242;-72
2023/06/13 05:37:18;;;;;;;15.50;9.90;;;;;;;18.46;88.00;96648.22;5006399;28;20606;-70
2023/06/13 05:39:45;;;;;;;14.83;9.53;;;;;;;18.48;87.59;96659.41;5006285;28;20691;-65
2023/06/13 05:42:12;;;;;;;13.80;9.20;;;;;;;18.69;86.48;96653.19;5006230;28;20252;-68
2023/06/13 05:44:39;;;;;;;16.17;9.40;;;;;;;18.89;85.27;96643.66;5007453;28;20205;-68
2023/06/13 05:47:06;;;;;;;16.73;9.23;;;;;;;18.92;84.50;96656.50;4992007;28;20233;-69
2023/06/13 05:49:34;;;;;;;16.13;9.03;;;;;;;19.10;84.25;96667.22;5013425;28;20296;-71
2023/06/13 05:52:01;;;;;;;11.67;9.23;;;;;;;19.11;83.76;96661.84;5007340;28;20342;-73
2023/06/13 05:54:28;;;;;;;12.80;8.60;;;;;;;19.11;84.03;96666.25;5006051;28;20218;-70
2023/06/13 05:56:55;;;;;;;15.03;9.20;;;;;;;19.10;83.88;96647.03;5006404;28;20593;-71
2023/06/13 05:59:22;;;;;;;12.63;8.60;;;;;;;19.22;82.83;96646.00;5006048;28;20209;-67
2023/06/13 06:01:50;;;;;;;16.37;8.43;;;;;;;19.34;82.04;96649.38;5006444;28;20233;-71
2023/06/13 06:04:17;;;;;;;26.40;9.23;;;;;;;19.43;81.81;96670.41;4988832;28;20195;-72
2023/06/13 06:06:45;;;;;;;14.00;8.93;;;;;;;19.56;81.53;96672.00;5005787;28;20242;-70
2023/06/13 06:09:12;;;;;;;12.17;7.43;;;;;;;19.40;81.45;96670.69;4989050;28;20214;-76
2023/06/13 06:11:39;;;;;;;9.50;7.10;;;;;;;19.40;81.32;96675.97;5005920;28;20230;-70
2023/06/13 06:14:06;;;;;;;13.50;11.17;;;;;;;19.47;82.33;96671.00;5006204;28;20280;-78
2023/06/13 06:16:33;;;;;;;13.93;8.40;;;;;;;19.74;80.45;96673.00;5008203;28;20240;-68
2023/06/13 06:19:01;;;;;;;13.13;8.47;;;;;;;19.77;79.93;96662.22;5010139;28;20294;-74
2023/06/13 06:21:28;;;;;;;10.20;8.37;;;;;;;19.65;79.61;96652.78;4992484;28;20248;-71
2023/06/13 06:23:55;;;;;;;16.83;8.83;;;;;;;19.72;80.59;96675.75;5009818;28;20277;-77
2023/06/13 06:26:23;;;;;;;13.13;9.03;;;;;;;19.93;79.56;96667.78;5010604;28;20196;-80
2023/06/13 06:28:50;;;;;;;13.27;7.50;;;;;;;19.71;79.19;96642.56;5009314;28;20205;-75
2023/06/13 06:31:18;;;;;;;11.33;7.57;;;;;;;19.75;79.31;96680.75;5010036;28;20250;-71
2023/06/13 06:33:45;;;;;;;11.53;8.23;;;;;;;19.71;78.90;96666.22;4991033;28;20597;-72
2023/06/13 06:36:14;;;;;;;11.17;9.60;;;;;;;19.93;78.79;96668.59;5015197;28;20211;-73
2023/06/13 06:38:42;;;;;;;10.00;7.97;;;;;;;19.92;78.57;96679.25;5001833;28;20208;-76
2023/06/13 06:41:09;;;;;;;14.23;7.90;;;;;;;19.79;80.23;96678.69;5013404;28;20622;-78
2023/06/13 06:43:36;;;;;;;13.87;8.37;;;;;;;20.10;78.93;96675.84;5010870;28;20672;-71
2023/06/13 06:46:09;;;;;;;12.60;8.53;;;;;;;20.27;77.95;96677.81;4991324;28;20242;-70
2023/06/13 06:48:38;;;;;;;11.93;7.60;;;;;;;20.49;77.13;96684.59;5009805;28;20206;-68
2023/06/13 06:51:05;;;;;;;13.73;9.73;;;;;;;20.32;77.67;96685.28;5008693;28;20231;-68
2023/06/13 06:53:32;;;;;;;17.20;9.80;;;;;;;20.17;78.70;96682.19;5009260;28;20508;-69
2023/06/13 06:55:59;;;;;;;18.47;8.37;;;;;;;20.39;78.22;96669.78;5009471;28;20675;-69
2023/06/13 06:58:26;;;;;;;12.30;8.03;;;;;;;20.59;77.10;96676.66;5009034;28;20211;-69
2023/06/13 07:00:53;;;;;;;12.37;8.37;;;;;;;20.42;77.16;96651.09;5009305;28;20214;-69
2023/06/13 07:03:21;;;;;;;10.60;8.67;;;;;;;20.70;76.22;96674.72;5008422;28;20218;-79
2023/06/13 07:05:49;;;;;;;10.37;8.97;;;;;;;20.33;77.28;96680.84;5009365;28;20195;-74
2023/06/13 07:08:16;;;;;;;8.93;7.83;;;;;;;20.45;77.16;96677.94;5008251;28;20210;-72
2023/06/13 07:10:43;;;;;;;13.90;8.50;;;;;;;20.28;76.73;96678.63;5008987;28;20683;-67
2023/06/13 07:13:50;;;;;;;13.03;8.03;;;;;;;20.19;77.42;96672.41;5022184;28;20248;-73
2023/06/13 07:17:11;;;;;;;14.07;9.17;;;;;;;19.96;78.30;96665.72;5031012;28;20554;-71
2023/06/13 07:20:32;;;;;;;11.17;9.73;;;;;;;20.78;74.17;96674.84;5047413;28;20614;-69
2023/06/13 07:23:55;;;;;;;10.47;8.43;;;;;;;20.99;71.74;96666.78;5033242;28;20328;-66
2023/06/13 07:27:16;;;;;;;10.97;8.83;;;;;;;21.12;71.21;96669.13;5049234;28;20284;-66
2023/06/13 07:30:37;;;;;;;13.93;8.90;;;;;;;21.37;71.50;96666.66;5033516;28;20256;-72
2023/06/13 07:33:57;;;;;;;15.00;9.40;;;;;;;21.61;70.49;96666.13;5046566;28;20600;-70
2023/06/13 07:37:19;;;;;;;10.93;7.90;;;;;;;21.87;68.11;96669.75;5044020;28;20196;-68
2023/06/13 07:40:40;;;;;;;11.37;7.97;;;;;;;22.29;66.96;96665.56;5009931;28;20636;-68
2023/06/13 07:44:00;;;;;;;12.33;7.57;;;;;;;22.57;66.50;96655.75;5032765;28;20298;-68
2023/06/13 07:47:21;;;;;;;12.93;6.73;;;;;;;22.82;64.37;96667.34;5045940;28;20245;-68
2023/06/13 07:50:42;;;;;;;13.40;7.17;;;;;;;23.24;62.86;96676.22;5046573;28;20196;-67
2023/06/13 07:54:03;;;;;;;6.83;5.97;;;;;;;23.39;61.20;96672.00;5007279;28;20225;-75
2023/06/13 07:56:30;;;;;;;11.43;6.87;;;;;;;23.44;61.70;96667.94;5007501;28;20282;-66
2023/06/13 07:58:57;;;;;;;7.53;6.30;;;;;;;23.32;61.08;96671.84;5007341;28;20234;-67
2023/06/13 08:01:24;;;;;;;13.70;7.10;;;;;;;23.18;61.20;96671.56;5007668;28;20260;-67
2023/06/13 08:03:51;;;;;;;13.10;6.47;;;;;;;23.22;61.37;96668.44;5007249;28;20265;-69
2023/06/13 08:06:18;;;;;;;9.30;6.97;;;;;;;22.99;61.49;96667.31;5010794;28;20602;-68
2023/06/13 08:08:45;;;;;;;9.30;7.37;;;;;;;22.77;62.13;96672.28;5014905;28;20219;-72
2023/06/13 08:11:12;;;;;;;7.83;6.70;;;;;;;22.82;63.08;96669.97;5015762;28;20223;-68
2023/06/13 08:13:39;;;;;;;11.37;7.20;;;;;;;22.75;62.71;96658.41;5019410;28;20228;-72
2023/06/13 08:16:06;;;;;;;14.97;7.37;;;;;;;22.93;62.62;96653.88;5018618;28;20206;-70
2023/06/13 08:18:34;;;;;;;15.73;8.27;;;;;;;23.14;64.04;96667.56;5017194;28;20201;-68
2023/06/13 08:21:01;;;;;;;13.07;8.03;;;;;;;23.04;63.78;96664.22;5007843;28;20610;-67
2023/06/13 08:23:28;;;;;;;12.27;7.63;;;;;;;23.00;63.73;96668.94;5000935;28;20265;-73
2023/06/13 08:25:55;;;;;;;14.03;9.03;;;;;;;22.85;63.65;96646.75;5026094;28;20323;-76
2023/06/13 08:28:23;;;;;;;14.03;7.87;;;;;;;22.82;64.85;96659.41;5009695;28;20207;-71
2023/06/13 08:30:51;;;;;;;11.37;7.23;;;;;;;23.05;63.74;96664.03;5026689;28;20234;-73
2023/06/13 08:33:21;;;;;;;9.90;7.93;;;;;;;22.78;65.36;96645.69;5026548;28;20211;-68
2023/06/13 08:35:50;;;;;;;15.70;8.63;;;;;;;22.89;64.03;96647.25;5007842;28;20530;-70
2023/06/13 08:38:19;;;;;;;10.60;8.63;;;;;;;23.26;62.67;96663.66;5026635;28;20727;-66
2023/06/13 08:40:46;;;;;;;8.70;7.13;;;;;;;23.24;61.85;96642.69;5026690;28;20244;-69
2023/06/13 08:43:14;;;;;;;9.13;7.07;;;;;;;23.34;61.85;96648.72;5026349;28;20203;-68
2023/06/13 08:45:41;;;;;;;8.40;7.40;;;;;;;23.58;60.55;96657.72;5026739;28;20237;-68
2023/06/13 08:48:08;;;;;;;9.47;5.87;;;;;;;23.94;58.87;96653.88;5026420;28;20213;-69
2023/06/13 08:50:37;;;;;;;13.07;7.27;;;;;;;23.88;59.50;96644.78;5026095;28;20253;-77
2023/06/13 08:53:06;;;;;;;11.83;8.43;;;;;;;24.11;58.27;96643.19;5026418;28;20217;-76
2023/06/13 08:55:38;;;;;;;11.10;7.20;;;;;;;23.65;59.92;96645.53;5026400;28;20613;-71
2023/06/13 08:58:27;;;;;;;12.57;8.57;;;;;;;23.63;60.45;96645.69;5029619;28;20760;-72
2023/06/13 09:00:57;;;;;;;11.90;7.80;;;;;;;23.59;60.39;96623.22;5029483;28;20286;-70
2023/06/13 09:03:25;;;;;;;12.47;7.90;;;;;;;23.27;62.09;96628.31;5048360;28;20201;-66
2023/06/13 09:05:52;;;;;;;8.10;7.30;;;;;;;23.62;59.75;96632.66;5019189;28;20229;-68
2023/06/13 09:08:20;;;;;;;11.53;8.63;;;;;;;22.94;61.51;96637.03;5046782;28;20199;-75
2023/06/13 09:10:59;;;;;;;12.23;8.60;;;;;;;22.83;61.69;96626.75;5042243;28;20358;-73
2023/06/13 09:13:28;;;;;;;8.87;7.97;;;;;;;22.82;62.48;96623.28;5045470;28;20204;-71
2023/06/13 09:15:56;;;;;;;11.57;8.20;;;;;;;23.02;62.18;96621.28;5046477;28;20213;-75
2023/06/13 09:18:23;;;;;;;8.27;7.00;;;;;;;23.30;61.30;96612.16;5045516;28;20680;-69
2023/06/13 09:20:51;;;;;;;8.93;7.00;;;;;;;23.09;62.39;96609.06;5045857;28;20205;-72
2023/06/13 09:23:19;;;;;;;14.80;7.73;;;;;;;23.47;60.79;96613.09;5045989;28;20206;-72
2023/06/13 09:25:48;;;;;;;8.33;7.17;;;;;;;23.43;59.97;96612.59;5027848;28;20248;-73
2023/06/13 09:28:36;;;;;;;7.50;6.70;;;;;;;23.01;60.43;96615.16;5046214;28;20691;-74
2023/06/13 09:31:04;;;;;;;12.77;7.30;;;;;;;23.23;61.94;96603.19;5027269;28;20229;-71
2023/06/13 09:33:31;;;;;;;9.83;6.97;;;;;;;23.50;61.88;96603.00;5046057;28;20259;-74
2023/06/13 09:35:58;;;;;;;9.20;7.83;;;;;;;23.53;62.26;96601.88;5045879;28;20284;-72
2023/06/13 09:38:34;;;;;;;8.47;7.33;;;;;;;23.54;62.00;96593.75;5045586;28;20209;-69
2023/06/13 09:41:03;;;;;;;10.80;7.07;;;;;;;23.63;62.25;96598.09;5027968;28;20233;-73
2023/06/13 09:43:31;;;;;;;11.27;7.97;;;;;;;23.62;61.98;96606.19;5025352;28;20273;-77
2023/06/13 09:45:58;;;;;;;9.13;7.50;;;;;;;23.50;62.40;96586.31;5024717;28;20618;-74
2023/06/13 09:48:25;;;;;;;9.57;7.03;;;;;;;23.45;62.66;96594.75;5025719;28;20205;-74
2023/06/13 09:50:53;;;;;;;12.13;7.50;;;;;;;23.65;62.21;96605.88;5027194;28;20221;-74
2023/06/13 09:53:21;;;;;;;11.40;7.53;;;;;;;23.71;61.27;96619.28;5035840;28;20213;-66
2023/06/13 09:55:49;;;;;;;10.50;6.80;;;;;;;23.85;60.34;96608.06;5039484;28;20239;-69
2023/06/13 09:58:16;;;;;;;10.60;8.20;;;;;;;23.89;59.84;96595.34;5030365;28;20256;-72
2023/06/13 10:00:59;;;;;;;12.40;7.40;;;;;;;24.03;58.92;96611.44;5029043;28;20211;-74
2023/06/13 10:03:28;;;;;;;9.77;6.90;;;;;;;23.90;58.83;96605.78;5030089;28;20218;-68
2023/06/13 10:06:00;;;;;;;8.33;7.33;;;;;;;24.15;58.32;96604.81;5027901;28;20204;-72
2023/06/13 10:08:28;;;;;;;8.87;6.63;;;;;;;24.34;58.09;96605.53;5033195;28;20210;-72
2023/06/13 10:10:57;;;;;;;8.90;7.60;;;;;;;24.42;57.59;96608.16;5049528;28;20238;-67
2023/06/13 10:13:29;;;;;;;10.17;6.40;;;;;;;24.76;56.51;96609.66;5031493;28;20785;-70
2023/06/13 10:15:58;;;;;;;10.33;6.47;;;;;;;24.49;55.32;96603.84;5011682;28;20255;-70
2023/06/13 10:18:35;;;;;;;7.60;6.73;;;;;;;24.17;57.36;96602.84;5011105;28;20209;-69
2023/06/13 10:21:04;;;;;;;9.70;6.93;;;;;;;24.41;57.20;96599.38;5029544;28;20277;-70
2023/06/13 10:23:35;;;;;;;12.37;6.47;;;;;;;24.65;56.16;96569.38;5029121;28;20229;-78
2023/06/13 10:26:11;;;;;;;15.43;7.13;;;;;;;24.59;55.78;96592.09;5029339;28;20693;-73
2023/06/13 10:28:48;;;;;;;8.23;7.17;;;;;;;24.76;55.40;96592.91;5029863;28;20700;-76
2023/06/13 10:31:46;;;;;;;9.10;5.97;;;;;;;24.68;54.51;96595.56;5028325;28;20232;-70
2023/06/13 10:34:47;;;;;;;13.17;7.57;;;;;;;24.80;54.21;96594.25;5027743;28;20210;-74
2023/06/13 10:37:20;;;;;;;8.27;6.03;;;;;;;24.87;54.29;96595.22;5028984;28;20708;-68
2023/06/13 10:40:04;;;;;;;6.40;5.80;;;;;;;24.90;53.44;96597.53;5028607;28;20647;-69
2023/06/13 10:42:40;;;;;;;6.60;5.97;;;;;;;24.90;53.27;96584.28;4995849;28;20212;-69
2023/06/13 10:45:18;;;;;;;9.17;6.10;;;;;;;25.13;52.82;96587.84;5013383;28;20733;-68
2023/06/13 10:47:45;;;;;;;8.43;6.37;;;;;;;24.75;53.83;96543.59;5030256;28;20315;-71
2023/06/13 10:50:16;;;;;;;8.83;6.40;;;;;;;24.93;53.84;96573.34;5011224;28;20205;-68
2023/06/13 10:52:48;;;;;;;8.00;6.13;;;;;;;25.15;53.03;96580.56;5028733;28;20721;-72
2023/06/13 10:55:26;;;;;;;6.37;5.70;;;;;;;25.50;51.96;96593.38;5029364;28;20202;-69
2023/06/13 10:57:56;;;;;;;8.97;6.07;;;;;;;25.51;52.13;96581.75;5028407;28;20853;-72
2023/06/13 11:00:34;;;;;;;7.97;5.10;;;;;;;25.61;51.24;96574.44;5028973;28;20213;-74
2023/06/13 11:03:12;;;;;;;10.13;6.43;;;;;;;25.44;51.40;96567.56;5010027;28;20216;-70
2023/06/13 11:05:49;;;;;;;9.17;5.97;;;;;;;25.48;51.78;96560.06;5028426;28;20236;-68
2023/06/13 11:08:21;;;;;;;7.90;6.50;;;;;;;25.24;51.30;96550.38;5029102;28;20724;-73
2023/06/13 11:10:50;;;;;;;6.23;5.63;;;;;;;25.68;50.00;96559.47;5010508;28;20230;-71
2023/06/13 11:13:22;;;;;;;7.13;5.50;;;;;;;25.42;50.41;96552.81;5028366;28;20681;-68
2023/06/13 11:15:53;;;;;;;7.83;5.60;;;;;;;25.28;50.27;96551.69;5028777;28;20198;-74
2023/06/13 11:18:20;;;;;;;6.60;5.90;;;;;;;25.25;51.46;96546.72;5028362;28;20190;-66
2023/06/13 11:20:51;;;;;;;9.37;7.60;;;;;;;25.41;50.64;96544.03;5028590;28;20715;-77
2023/06/13 11:23:21;;;;;;;6.17;5.20;;;;;;;25.58;50.92;96542.09;5010624;28;20214;-72
2023/06/13 11:25:50;;;;;;;10.37;6.50;;;;;;;25.50;50.02;96539.50;5028993;28;20704;-79
2023/06/13 11:28:18;;;;;;;9.63;6.30;;;;;;;25.56;49.35;96544.09;5010545;28;20262;-73
2023/06/13 11:30:47;;;;;;;9.63;5.50;;;;;;;25.69;48.68;96533.75;5030965;28;20612;-70
2023/06/13 11:33:16;;;;;;;8.83;5.97;;;;;;;25.93;49.12;96530.09;5034887;28;20704;-78
2023/06/13 11:35:49;;;;;;;6.57;5.40;;;;;;;25.94;48.19;96523.81;5038521;28;20871;-68
2023/06/13 11:38:33;;;;;;;6.77;5.83;;;;;;;25.59;48.94;96490.72;5013334;28;20198;-68
2023/06/13 11:41:01;;;;;;;8.07;5.37;;;;;;;26.00;48.82;96520.44;5011295;28;20241;-76
2023/06/13 11:43:28;;;;;;;6.30;5.13;;;;;;;25.74;48.96;96518.97;5028970;28;20212;-73
2023/06/13 11:46:00;;;;;;;7.13;5.00;;;;;;;26.12;49.20;96514.56;5028435;28;20328;-69
2023/06/13 11:48:27;;;;;;;8.13;5.80;;;;;;;26.06;49.87;96520.56;5028150;28;20257;-78
2023/06/13 11:51:13;;;;;;;7.53;5.63;;;;;;;25.62;50.61;96515.06;5027617;28;20288;-73
2023/06/13 11:53:47;;;;;;;8.20;6.63;;;;;;;25.30;52.00;96509.94;5027445;28;20199;-76
2023/06/13 11:56:15;;;;;;;9.93;6.70;;;;;;;25.26;53.34;96500.69;5028001;28;20210;-74
2023/06/13 11:58:42;;;;;;;8.10;5.90;;;;;;;25.54;52.56;96506.31;5027466;28;20678;-70
2023/06/13 12:01:15;;;;;;;9.20;5.30;;;;;;;25.41;52.30;96508.75;5027767;28;20264;-72
2023/06/13 12:03:44;;;;;;;8.47;5.73;;;;;;;25.35;52.50;96504.91;5027521;28;20567;-77
2023/06/13 12:06:12;;;;;;;7.00;5.60;;;;;;;25.52;52.53;96516.28;5026933;28;20210;-76
2023/06/13 12:08:44;;;;;;;8.73;6.47;;;;;;;25.58;52.28;96512.94;5027699;28;20271;-74
2023/06/13 12:11:16;;;;;;;7.83;6.60;;;;;;;25.64;51.95;96507.75;5027010;28;20660;-75
2023/06/13 12:13:58;;;;;;;6.57;5.77;;;;;;;25.52;52.40;96506.50;5010103;28;20560;-67
2023/06/13 12:16:29;;;;;;;8.27;5.90;;;;;;;25.28;52.47;96488.06;5009250;28;20194;-67
2023/06/13 12:18:57;;;;;;;7.73;6.03;;;;;;;24.92;52.64;96484.25;5028035;28;20202;-67
2023/06/13 12:21:29;;;;;;;6.83;6.03;;;;;;;24.98;52.64;96497.66;5030156;28;20312;-70
2023/06/13 12:23:58;;;;;;;8.57;7.77;;;;;;;25.23;52.72;96492.22;5040393;28;20256;-71